Terminal Aerodrome Forecast
Issued by NWS

Current Version | Previous Version | Graphics & Text | Print | Product List | Glossary On
Versions: 1 2 3 4 5 6 7 8 9 10 11 12 13 14 15 16 17 18 19 20 21
000
FTUS41 KRNK 210532
TAFLWB
TAF
KLWB 210532Z 2106/2206 00000KT P6SM SCT250 WS020/22030KT
     FM210900 00000KT 4SM BR SCT050 SCT250
      TEMPO 2110/2113 1/4SM FG VV001
     FM211700 22007KT P6SM BKN035
     FM220000 25004KT P6SM SCT040
     FM220500 VRB03KT P6SM BKN010=

USA.gov is the U.S. government's official web portal to all federal, state and local government web resources and services.